createdAt,value
2019-05-02T00:00:32.619Z,48.35
2019-05-02T00:03:04.402Z,48.63
2019-05-02T00:05:33.643Z,50.55
2019-05-02T00:08:03.286Z,50.55
2019-05-02T00:10:34.655Z,51.80
2019-05-02T00:13:04.139Z,49.83
2019-05-02T00:15:38.099Z,50.92
2019-05-02T00:18:04.959Z,52.03
2019-05-02T00:20:34.457Z,52.03
2019-05-02T00:23:03.899Z,50.75
2019-05-02T00:25:33.332Z,52.60
2019-05-02T00:28:02.795Z,52.30
2019-05-02T00:30:34.712Z,51.65
2019-05-02T00:33:03.512Z,50.12
2019-05-02T00:35:32.964Z,51.83
2019-05-02T00:38:02.684Z,50.43
2019-05-02T00:40:33.359Z,52.03
2019-05-02T00:43:03.147Z,52.75
2019-05-02T00:45:32.896Z,51.30
2019-05-02T00:48:19.330Z,50.75
2019-05-02T00:50:52.541Z,53.73
2019-05-02T00:53:22.179Z,53.00
2019-05-02T00:55:51.648Z,52.03
2019-05-02T00:58:21.087Z,53.90
2019-05-02T01:01:03.930Z,52.85
2019-05-02T01:03:35.030Z,51.55
2019-05-02T01:06:04.597Z,51.92
2019-05-02T01:08:35.696Z,52.62
2019-05-02T01:11:05.119Z,51.60
2019-05-02T01:13:34.489Z,54.15
2019-05-02T01:16:03.989Z,53.33
2019-05-02T01:18:37.267Z,52.48
2019-05-02T01:21:04.567Z,50.98
2019-05-02T01:23:34.003Z,50.40
2019-05-02T01:26:03.359Z,51.75
2019-05-02T01:28:54.247Z,53.42
2019-05-02T01:31:30.012Z,50.12
2019-05-02T01:34:04.127Z,48.80
2019-05-02T01:36:36.757Z,49.77
2019-05-02T01:39:08.793Z,50.73
2019-05-02T01:41:38.422Z,52.08
2019-05-02T01:44:07.764Z,51.83
2019-05-02T01:46:37.128Z,49.00
2019-05-02T01:49:07.662Z,50.78
2019-05-02T01:51:37.099Z,51.40
2019-05-02T01:54:10.075Z,49.77
2019-05-02T01:56:39.415Z,48.23
2019-05-02T01:59:08.772Z,49.45
2019-05-02T02:01:38.134Z,49.18
2019-05-02T02:04:07.496Z,49.18
2019-05-02T02:06:56.183Z,51.30
2019-05-02T02:09:25.575Z,47.58
2019-05-02T02:11:55.020Z,49.15
2019-05-02T02:14:24.388Z,48.25
2019-05-02T02:16:53.764Z,50.67
2019-05-02T02:19:24.761Z,48.23
2019-05-02T02:22:02.812Z,49.27
2019-05-02T02:24:40.348Z,47.88
2019-05-02T02:27:09.811Z,49.33
2019-05-02T02:29:43.878Z,49.63
2019-05-02T02:32:10.326Z,48.17
2019-05-02T02:34:39.803Z,49.42
2019-05-02T02:37:12.504Z,48.58
2019-05-02T02:39:40.275Z,46.92
2019-05-02T02:42:09.726Z,47.30
2019-05-02T02:44:49.265Z,45.25
2019-05-02T02:47:20.980Z,52.03
2019-05-02T02:49:55.709Z,50.30
2019-05-02T02:52:20.820Z,48.58
2019-05-02T02:54:50.262Z,48.35
2019-05-02T02:57:26.223Z,46.05
2019-05-02T02:59:51.947Z,47.27
2019-05-02T03:02:21.324Z,48.23
2019-05-02T03:04:50.752Z,47.80
2019-05-02T03:07:25.808Z,46.95
2019-05-02T03:09:51.199Z,47.00
2019-05-02T03:12:23.362Z,47.43
2019-05-02T03:14:54.624Z,47.20
2019-05-02T03:17:25.923Z,46.40
2019-05-02T03:20:00.955Z,46.05
2019-05-02T03:22:26.254Z,48.13
2019-05-02T03:24:56.154Z,44.88
2019-05-02T03:27:29.934Z,46.50
2019-05-02T03:29:57.389Z,46.48
2019-05-02T03:32:34.137Z,46.30
2019-05-02T03:34:58.333Z,46.25
2019-05-02T03:37:28.016Z,46.95
2019-05-02T03:40:00.294Z,44.93
2019-05-02T03:42:28.438Z,46.18
2019-05-02T03:45:03.847Z,48.63
2019-05-02T03:47:29.345Z,49.27
2019-05-02T03:49:59.372Z,46.83
2019-05-02T03:52:28.848Z,45.45
2019-05-02T03:58:33.016Z,47.10
2019-05-02T04:01:03.848Z,46.95
2019-05-02T04:03:40.761Z,49.25
2019-05-02T04:06:05.320Z,47.78
2019-05-02T04:08:36.047Z,48.52
2019-05-02T04:11:17.559Z,47.50
2019-05-02T04:13:47.957Z,49.42
2019-05-02T04:16:18.080Z,50.10
2019-05-02T04:18:54.997Z,46.37
2019-05-02T04:21:24.226Z,47.48
2019-05-02T04:23:51.207Z,49.27
2019-05-02T04:29:55.380Z,48.40
2019-05-02T04:32:24.830Z,48.40
2019-05-02T04:34:55.154Z,49.90
2019-05-02T04:37:25.340Z,51.23
2019-05-02T04:43:29.966Z,52.23
2019-05-02T04:46:00.285Z,50.92
2019-05-02T04:51:50.675Z,49.18
2019-05-02T04:54:22.059Z,49.98
2019-05-02T05:01:10.096Z,51.92
2019-05-02T05:03:39.691Z,51.33
2019-05-02T05:09:20.831Z,53.23
2019-05-02T05:11:53.792Z,51.23
2019-05-02T05:14:21.260Z,50.80
2019-05-02T05:16:55.341Z,51.90
2019-05-02T05:19:22.975Z,54.70
2019-05-02T05:21:58.879Z,52.13
2019-05-02T05:24:42.445Z,50.58
2019-05-02T05:27:13.414Z,54.90
2019-05-02T05:29:45.931Z,54.93
2019-05-02T05:32:15.229Z,55.55
2019-05-02T05:34:44.663Z,53.48
2019-05-02T05:40:37.610Z,53.70
2019-05-02T05:43:14.160Z,54.35
2019-05-02T05:45:51.189Z,56.25
2019-05-02T05:48:09.224Z,56.37
2019-05-02T05:50:41.386Z,52.20
2019-05-02T05:53:12.414Z,51.00
2019-05-02T05:55:40.809Z,53.13
2019-05-02T05:58:15.173Z,50.10
2019-05-02T06:00:45.863Z,50.43
2019-05-02T06:03:14.267Z,49.18
2019-05-02T06:05:43.708Z,50.85
2019-05-02T06:08:13.874Z,52.38
2019-05-02T06:10:45.169Z,50.50
2019-05-02T06:13:14.695Z,54.13
2019-05-02T06:15:45.881Z,51.60
2019-05-02T06:18:15.200Z,52.80
2019-05-02T06:20:44.679Z,52.27
2019-05-02T06:23:16.032Z,52.43
2019-05-02T06:25:45.103Z,55.17
2019-05-02T06:28:14.472Z,54.25
2019-05-02T06:30:44.063Z,53.63
2019-05-02T06:33:13.415Z,54.50
2019-05-02T06:35:42.831Z,52.85
2019-05-02T06:38:15.068Z,56.13
2019-05-02T06:40:46.605Z,56.02
2019-05-02T06:43:16.171Z,57.58
2019-05-02T06:45:45.623Z,57.27
2019-05-02T06:48:17.745Z,58.23
2019-05-02T06:50:46.164Z,61.68
2019-05-02T06:53:15.538Z,62.73
2019-05-02T06:55:45.135Z,63.78
2019-05-02T06:58:14.504Z,64.07
2019-05-02T07:00:56.543Z,65.40
2019-05-02T07:03:16.097Z,64.50
2019-05-02T07:05:45.519Z,60.83
2019-05-02T07:08:16.366Z,65.92
2019-05-02T07:10:45.790Z,59.70
2019-05-02T07:13:15.574Z,54.60
2019-05-02T07:15:55.199Z,57.55
2019-05-02T07:18:26.287Z,45.25
2019-05-02T07:20:55.728Z,47.40
2019-05-02T07:23:25.268Z,53.50
2019-05-02T07:25:54.639Z,55.35
2019-05-02T07:28:24.333Z,51.40
2019-05-02T07:30:54.783Z,52.33
2019-05-02T07:33:24.499Z,51.28
2019-05-02T07:36:00.159Z,50.90
2019-05-02T07:40:59.999Z,52.03
2019-05-02T07:43:29.377Z,48.45
2019-05-02T07:45:58.810Z,52.05
2019-05-02T07:48:28.264Z,54.75
2019-05-02T07:50:57.623Z,54.35
2019-05-02T07:53:27.075Z,58.05
2019-05-02T07:55:58.125Z,61.02
2019-05-02T07:58:27.506Z,56.25
2019-05-02T08:00:56.863Z,55.80
2019-05-02T08:03:29.358Z,54.88
2019-05-02T08:05:58.581Z,59.73
2019-05-02T08:08:29.922Z,55.78
2019-05-02T08:11:01.719Z,48.80
2019-05-02T08:13:31.499Z,48.83
2019-05-02T08:16:02.808Z,53.45
2019-05-02T08:18:32.243Z,43.70
2019-05-02T08:21:01.606Z,52.95
2019-05-02T08:23:32.031Z,54.50
2019-05-02T08:26:01.415Z,54.13
2019-05-02T08:28:41.399Z,53.98
2019-05-02T08:31:13.653Z,56.18
2019-05-02T08:33:41.979Z,55.98
2019-05-02T08:36:11.451Z,57.13
2019-05-02T08:38:40.880Z,54.90
2019-05-02T08:41:10.315Z,57.93
2019-05-02T08:43:40.071Z,57.62
2019-05-02T08:46:14.530Z,52.48
2019-05-02T08:48:43.794Z,55.95
2019-05-02T08:51:13.191Z,52.15
2019-05-02T08:53:42.558Z,57.40
2019-05-02T08:56:16.507Z,58.98
2019-05-02T08:58:44.858Z,58.70
2019-05-02T09:01:15.480Z,59.90
2019-05-02T09:04:00.520Z,60.73
2019-05-02T09:06:17.147Z,58.23
2019-05-02T09:08:51.318Z,60.73
2019-05-02T09:11:18.450Z,61.85
2019-05-02T09:13:48.206Z,60.52
2019-05-02T09:16:23.344Z,61.73
2019-05-02T09:18:51.919Z,59.18
2019-05-02T09:21:21.884Z,58.28
2019-05-02T09:23:51.997Z,61.55
2019-05-02T09:26:35.086Z,59.93
2019-05-02T09:28:56.268Z,62.35
2019-05-02T09:31:24.733Z,59.75
2019-05-02T09:33:55.664Z,58.83
2019-05-02T09:36:25.347Z,60.23
2019-05-02T09:38:57.626Z,59.38
2019-05-02T09:41:26.799Z,60.28
2019-05-02T09:43:56.935Z,59.80
2019-05-02T09:46:26.304Z,58.68
2019-05-02T09:48:57.185Z,57.27
2019-05-02T09:51:26.905Z,58.28
2019-05-02T09:53:57.144Z,60.17
2019-05-02T09:56:27.397Z,58.38
2019-05-02T09:59:06.167Z,59.18
2019-05-02T10:04:49.573Z,62.80
2019-05-02T10:07:19.075Z,56.40
2019-05-02T10:09:48.524Z,59.23
2019-05-02T10:12:17.959Z,57.90
2019-05-02T10:14:47.394Z,61.00
2019-05-02T10:17:18.488Z,57.75
2019-05-02T10:19:49.151Z,56.40
2019-05-02T10:22:18.887Z,55.55
2019-05-02T10:30:56.412Z,52.67
2019-05-02T10:33:27.961Z,50.83
2019-05-02T10:35:54.784Z,53.08
2019-05-02T10:41:48.135Z,49.42
2019-05-02T10:44:17.580Z,51.40
2019-05-02T10:46:54.144Z,49.10
2019-05-02T10:52:47.687Z,43.80
2019-05-02T10:55:21.740Z,37.35
2019-05-02T10:57:49.940Z,41.30
2019-05-02T11:00:23.445Z,39.25
2019-05-02T11:03:12.580Z,37.45
2019-05-02T11:05:43.579Z,39.65
2019-05-02T11:08:12.960Z,39.53
2019-05-02T11:10:42.856Z,40.67
2019-05-02T11:13:13.941Z,40.67
2019-05-02T11:15:49.387Z,41.45
2019-05-02T11:18:22.195Z,39.50
2019-05-02T11:20:52.505Z,38.92
2019-05-02T11:23:22.220Z,38.15
2019-05-02T11:25:52.673Z,38.00
2019-05-02T11:28:23.447Z,38.92
2019-05-02T11:30:56.972Z,37.95
2019-05-02T11:33:23.959Z,37.98
2019-05-02T11:35:53.620Z,28.95
2019-05-02T11:38:39.812Z,24.40
2019-05-02T11:41:06.729Z,25.32
2019-05-02T11:43:41.397Z,24.10
2019-05-02T11:46:08.112Z,26.12
2019-05-02T11:48:37.471Z,25.45
2019-05-02T11:51:07.429Z,25.72
2019-05-02T11:53:37.905Z,25.92
2019-05-02T11:56:08.478Z,27.13
2019-05-02T11:58:42.457Z,27.20
2019-05-02T12:01:09.459Z,27.98
2019-05-02T12:03:44.117Z,27.80
2019-05-02T12:06:19.120Z,27.35
2019-05-02T12:08:49.224Z,26.02
2019-05-02T12:11:17.712Z,26.15
2019-05-02T12:13:47.372Z,23.00
2019-05-02T12:16:17.973Z,18.67
2019-05-02T12:18:47.348Z,16.10
2019-05-02T12:21:16.865Z,17.62
2019-05-02T12:23:46.231Z,15.88
2019-05-02T12:26:15.671Z,14.13
2019-05-02T12:28:45.035Z,14.00
2019-05-02T12:31:29.209Z,12.78
2019-05-02T12:36:28.840Z,12.98
2019-05-02T12:38:58.260Z,13.00
2019-05-02T12:41:27.619Z,12.65
2019-05-02T12:43:56.988Z,13.10
2019-05-02T12:46:28.429Z,13.88
2019-05-02T12:48:57.424Z,13.60
2019-05-02T12:51:26.792Z,14.03
2019-05-02T12:53:56.155Z,13.72
2019-05-02T12:56:25.529Z,16.05
2019-05-02T12:58:54.900Z,15.90
2019-05-02T13:01:24.331Z,16.80
2019-05-02T13:03:58.020Z,16.02
2019-05-02T13:06:27.379Z,16.25
2019-05-02T13:08:56.739Z,15.72
2019-05-02T13:11:45.985Z,16.77
2019-05-02T13:14:19.730Z,17.17
2019-05-02T13:16:48.023Z,16.17
2019-05-02T13:19:17.776Z,17.52
2019-05-02T13:21:50.129Z,16.40
2019-05-02T13:24:29.115Z,17.80
2019-05-02T13:26:59.418Z,15.60
2019-05-02T13:29:26.993Z,14.85
2019-05-02T13:31:58.052Z,16.12
2019-05-02T13:34:32.075Z,14.73
2019-05-02T13:37:02.958Z,14.68
2019-05-02T13:39:45.893Z,15.20
2019-05-02T13:42:16.629Z,15.10
2019-05-02T13:47:58.211Z,16.67
2019-05-02T13:50:27.680Z,17.62
2019-05-02T13:52:57.992Z,18.07
2019-05-02T13:55:31.740Z,17.92
2019-05-02T13:58:02.509Z,17.98
2019-05-02T14:00:33.621Z,18.85
2019-05-02T14:03:03.108Z,18.87
2019-05-02T14:05:32.488Z,18.77
2019-05-02T14:08:18.450Z,22.27
2019-05-02T14:10:56.924Z,21.60
2019-05-02T14:13:27.447Z,23.45
2019-05-02T14:15:56.818Z,24.90
2019-05-02T14:18:28.926Z,24.77
2019-05-02T14:20:57.315Z,23.70
2019-05-02T14:23:27.271Z,23.50
2019-05-02T14:29:21.720Z,26.57
2019-05-02T14:31:51.938Z,28.00
2019-05-02T14:34:39.409Z,25.27
2019-05-02T14:41:03.067Z,28.30
2019-05-02T14:43:53.201Z,26.48
2019-05-02T14:46:28.891Z,26.02
2019-05-02T14:48:55.851Z,29.75
2019-05-02T14:51:27.622Z,26.93
2019-05-02T14:53:57.459Z,28.40
2019-05-02T14:56:32.862Z,26.07
2019-05-02T14:59:02.840Z,25.70
2019-05-02T15:01:32.299Z,26.23
2019-05-02T15:04:06.388Z,26.12
2019-05-02T15:10:08.684Z,23.50
2019-05-02T15:16:02.499Z,24.63
2019-05-02T15:18:32.182Z,25.95
2019-05-02T15:21:03.857Z,25.35
2019-05-02T15:23:32.696Z,22.58
2019-05-02T15:26:02.618Z,23.12
2019-05-02T15:28:37.375Z,26.12
2019-05-02T15:31:05.055Z,26.85
2019-05-02T15:33:36.172Z,26.95
2019-05-02T15:36:07.685Z,22.02
2019-05-02T15:38:42.107Z,22.82
2019-05-02T15:41:12.643Z,23.60
2019-05-02T15:43:44.109Z,23.57
2019-05-02T15:46:10.415Z,23.98
2019-05-02T15:52:28.012Z,26.02
2019-05-02T15:55:00.508Z,24.35
2019-05-02T15:57:38.090Z,26.05
2019-05-02T16:00:01.637Z,29.67
2019-05-02T16:02:33.087Z,28.50
2019-05-02T16:05:05.410Z,26.05
2019-05-02T16:07:38.054Z,26.02
2019-05-02T16:10:06.730Z,23.20
2019-05-02T16:12:37.723Z,28.25
2019-05-02T16:15:13.252Z,23.15
2019-05-02T16:17:38.339Z,22.10
2019-05-02T16:23:35.231Z,22.20
2019-05-02T16:29:36.677Z,20.40
2019-05-02T16:32:07.749Z,20.85
2019-05-02T16:34:54.182Z,21.00
2019-05-02T16:37:22.565Z,20.97
2019-05-02T16:39:52.187Z,21.20
2019-05-02T16:42:22.742Z,19.12
2019-05-02T16:44:54.717Z,20.25
2019-05-02T16:47:23.455Z,18.42
2019-05-02T16:49:56.294Z,22.00
2019-05-02T16:52:24.007Z,21.05
2019-05-02T16:54:53.459Z,19.87
2019-05-02T16:57:23.834Z,20.70
2019-05-02T17:00:01.005Z,20.50
2019-05-02T17:02:24.427Z,20.00
2019-05-02T17:04:54.745Z,20.82
2019-05-02T17:07:25.911Z,20.27
2019-05-02T17:10:14.676Z,19.75
2019-05-02T17:12:40.111Z,19.95
2019-05-02T17:15:31.270Z,18.57
2019-05-02T17:18:05.103Z,19.35
2019-05-02T17:20:31.931Z,18.30
2019-05-02T17:23:05.164Z,20.23
2019-05-02T17:25:32.603Z,20.72
2019-05-02T17:28:08.489Z,18.27
2019-05-02T17:34:08.651Z,16.17
2019-05-02T17:36:38.170Z,17.23
2019-05-02T17:39:08.424Z,15.65
2019-05-02T17:41:42.277Z,16.32
2019-05-02T17:47:21.316Z,15.00
2019-05-02T17:49:52.932Z,14.47
2019-05-02T17:55:56.763Z,10.88
2019-05-02T17:58:26.151Z,10.15
2019-05-02T18:00:57.419Z,10.28
2019-05-02T18:03:31.120Z,10.43
2019-05-02T18:05:59.272Z,9.50
2019-05-02T18:08:28.787Z,9.65
2019-05-02T18:11:00.193Z,8.68
2019-05-02T18:13:33.699Z,9.43
2019-05-02T18:16:00.248Z,9.30
2019-05-02T18:18:31.799Z,8.78
2019-05-02T18:24:23.808Z,8.20
2019-05-02T18:26:53.243Z,9.05
2019-05-02T18:29:22.687Z,9.68
2019-05-02T18:35:27.526Z,9.63
2019-05-02T18:37:57.004Z,10.13
2019-05-02T18:40:29.394Z,11.20
2019-05-02T18:46:10.412Z,10.82
2019-05-02T18:48:42.167Z,13.32
2019-05-02T18:51:11.075Z,12.78
2019-05-02T18:53:42.255Z,11.88
2019-05-02T18:56:12.431Z,14.43
2019-05-02T18:58:45.132Z,16.05
2019-05-02T19:01:16.151Z,16.32
2019-05-02T19:03:46.981Z,18.00
2019-05-02T19:06:15.440Z,18.92
2019-05-02T19:08:49.830Z,19.40
2019-05-02T19:11:18.362Z,19.55
2019-05-02T19:17:12.211Z,21.50
2019-05-02T19:19:41.947Z,20.50
2019-05-02T19:22:16.740Z,19.52
2019-05-02T19:24:43.584Z,21.05
2019-05-02T19:27:14.579Z,21.00
2019-05-02T19:29:48.114Z,22.27
2019-05-02T19:35:45.249Z,21.33
2019-05-02T19:38:11.698Z,22.65
2019-05-02T19:43:53.364Z,19.98
2019-05-02T19:46:24.566Z,21.80
2019-05-02T19:48:53.980Z,20.45
2019-05-02T19:51:23.352Z,20.55
2019-05-02T19:53:59.542Z,22.32
2019-05-02T19:56:24.286Z,21.50
2019-05-02T19:58:53.835Z,22.60
2019-05-02T20:04:57.606Z,21.45
2019-05-02T20:10:56.691Z,20.60
2019-05-02T20:13:28.363Z,21.77
2019-05-02T20:15:57.049Z,21.68
2019-05-02T20:18:28.659Z,21.00
2019-05-02T20:21:12.128Z,20.77
2019-05-02T20:23:43.016Z,20.35
2019-05-02T20:26:15.438Z,21.62
2019-05-02T20:28:42.582Z,20.48
2019-05-02T20:31:12.349Z,19.65
2019-05-02T20:33:43.062Z,20.12
2019-05-02T20:36:12.893Z,21.50
2019-05-02T20:38:42.348Z,20.70
2019-05-02T20:41:12.749Z,21.73
2019-05-02T20:43:44.776Z,20.65
2019-05-02T20:46:13.607Z,20.45
2019-05-02T20:48:43.074Z,20.52
2019-05-02T20:51:12.583Z,20.88
2019-05-02T20:53:42.223Z,21.35
2019-05-02T20:56:12.413Z,21.20
2019-05-02T20:58:42.103Z,21.95
2019-05-02T21:01:12.721Z,21.68
2019-05-02T21:03:42.846Z,21.23
2019-05-02T21:06:19.726Z,20.97
2019-05-02T21:08:57.137Z,21.90
2019-05-02T21:11:27.246Z,22.42
2019-05-02T21:13:56.799Z,21.73
2019-05-02T21:16:26.325Z,20.82
2019-05-02T21:18:55.793Z,21.27
2019-05-02T21:21:26.200Z,21.35
2019-05-02T21:23:55.654Z,21.40
2019-05-02T21:26:26.534Z,21.02
2019-05-02T21:28:56.065Z,21.62
2019-05-02T21:31:25.545Z,21.80
2019-05-02T21:33:55.026Z,20.23
2019-05-02T21:36:24.481Z,20.37
2019-05-02T21:38:53.934Z,19.75
2019-05-02T21:41:23.542Z,20.02
2019-05-02T21:47:28.237Z,18.90
2019-05-02T21:49:59.336Z,17.57
2019-05-02T21:52:36.146Z,16.93
2019-05-02T21:55:15.792Z,18.35
2019-05-02T21:57:45.261Z,16.90
2019-05-02T22:00:19.430Z,17.45
2019-05-02T22:02:52.234Z,16.32
2019-05-02T22:05:22.222Z,17.87
2019-05-02T22:07:52.319Z,15.58
2019-05-02T22:10:23.005Z,16.60
2019-05-02T22:12:52.463Z,15.15
2019-05-02T22:15:22.007Z,13.22
2019-05-02T22:17:52.273Z,14.33
2019-05-02T22:20:22.943Z,12.18
2019-05-02T22:26:43.387Z,11.28
2019-05-02T22:29:12.340Z,10.65
2019-05-02T22:31:43.045Z,10.43
2019-05-02T22:34:13.036Z,10.85
2019-05-02T22:36:44.042Z,10.93
2019-05-02T22:39:32.071Z,10.40
2019-05-02T22:42:04.346Z,10.32
2019-05-02T22:44:32.706Z,10.40
2019-05-02T22:50:37.638Z,8.30
2019-05-02T22:53:07.109Z,9.30
2019-05-02T22:55:36.641Z,8.28
2019-05-02T22:58:06.110Z,7.87
2019-05-02T23:00:35.573Z,7.80
2019-05-02T23:03:05.161Z,8.05
2019-05-02T23:05:34.625Z,8.13
2019-05-02T23:08:04.088Z,7.03
2019-05-02T23:10:33.555Z,7.58
2019-05-02T23:13:03.090Z,6.97
2019-05-02T23:15:32.538Z,5.95
2019-05-02T23:18:01.994Z,6.05
2019-05-02T23:20:32.883Z,5.58
2019-05-02T23:23:02.633Z,5.62
2019-05-02T23:25:48.726Z,5.65
2019-05-02T23:28:19.808Z,4.87
2019-05-02T23:30:51.886Z,5.00
2019-05-02T23:33:23.382Z,5.40
2019-05-02T23:35:52.531Z,5.42
2019-05-02T23:38:21.993Z,5.42
2019-05-02T23:40:52.642Z,5.60
2019-05-02T23:43:22.244Z,5.50
2019-05-02T23:45:51.718Z,5.42
2019-05-02T23:48:22.102Z,5.50
2019-05-02T23:50:52.151Z,5.70
2019-05-02T23:53:22.107Z,6.58
2019-05-02T23:55:51.641Z,5.58
2019-05-02T23:58:22.613Z,5.62
